sensor_id;sensor_type;location;lat;lon;timestamp;temperature;humidity
23520;DHT22;11936;50.820;4.336;2024-01-30T00:01:15;12.20;99.90
23520;DHT22;11936;50.820;4.336;2024-01-30T00:03:41;12.20;99.90
23520;DHT22;11936;50.820;4.336;2024-01-30T00:06:11;12.30;99.90
23520;DHT22;11936;50.820;4.336;2024-01-30T00:08:36;12.30;99.90
23520;DHT22;11936;50.820;4.336;2024-01-30T00:11:02;12.30;99.90
23520;DHT22;11936;50.820;4.336;2024-01-30T00:13:27;12.30;99.90
23520;DHT22;11936;50.820;4.336;2024-01-30T00:15:53;12.30;99.90
23520;DHT22;11936;50.820;4.336;2024-01-30T00:18:19;12.20;99.90
23520;DHT22;11936;50.820;4.336;2024-01-30T00:20:45;12.20;99.90
23520;DHT22;11936;50.820;4.336;2024-01-30T00:23:11;12.30;99.90
23520;DHT22;11936;50.820;4.336;2024-01-30T00:25:36;12.30;99.90
23520;DHT22;11936;50.820;4.336;2024-01-30T00:28:02;12.40;99.90
23520;DHT22;11936;50.820;4.336;2024-01-30T00:30:28;12.40;99.90
23520;DHT22;11936;50.820;4.336;2024-01-30T00:32:54;12.40;99.90
23520;DHT22;11936;50.820;4.336;2024-01-30T00:35:19;12.40;99.90
23520;DHT22;11936;50.820;4.336;2024-01-30T00:37:47;12.40;99.90
23520;DHT22;11936;50.820;4.336;2024-01-30T00:40:13;12.40;99.90
23520;DHT22;11936;50.820;4.336;2024-01-30T00:42:42;12.40;99.90
23520;DHT22;11936;50.820;4.336;2024-01-30T00:45:15;12.40;99.90
23520;DHT22;11936;50.820;4.336;2024-01-30T00:47:41;12.40;99.90
23520;DHT22;11936;50.820;4.336;2024-01-30T00:50:07;12.50;99.90
23520;DHT22;11936;50.820;4.336;2024-01-30T00:52:33;12.40;99.90
23520;DHT22;11936;50.820;4.336;2024-01-30T00:54:59;12.40;99.90
23520;DHT22;11936;50.820;4.336;2024-01-30T00:57:25;12.50;99.90
23520;DHT22;11936;50.820;4.336;2024-01-30T00:59:51;12.50;99.90
23520;DHT22;11936;50.820;4.336;2024-01-30T01:02:16;12.50;99.90
23520;DHT22;11936;50.820;4.336;2024-01-30T01:04:45;12.50;99.90
23520;DHT22;11936;50.820;4.336;2024-01-30T01:07:11;12.40;99.90
23520;DHT22;11936;50.820;4.336;2024-01-30T01:09:37;12.50;99.90
23520;DHT22;11936;50.820;4.336;2024-01-30T01:12:03;12.60;99.90
23520;DHT22;11936;50.820;4.336;2024-01-30T01:14:29;12.60;99.90
23520;DHT22;11936;50.820;4.336;2024-01-30T01:16:55;12.60;99.90
23520;DHT22;11936;50.820;4.336;2024-01-30T01:19:20;12.60;99.90
23520;DHT22;11936;50.820;4.336;2024-01-30T01:21:46;12.60;99.90
23520;DHT22;11936;50.820;4.336;2024-01-30T01:24:12;12.50;99.90
23520;DHT22;11936;50.820;4.336;2024-01-30T01:26:38;12.60;99.90
23520;DHT22;11936;50.820;4.336;2024-01-30T01:29:03;12.70;99.90
23520;DHT22;11936;50.820;4.336;2024-01-30T01:31:38;12.60;99.90
23520;DHT22;11936;50.820;4.336;2024-01-30T01:34:13;12.60;99.90
23520;DHT22;11936;50.820;4.336;2024-01-30T01:36:39;12.70;99.90
23520;DHT22;11936;50.820;4.336;2024-01-30T01:39:05;12.70;99.90
23520;DHT22;11936;50.820;4.336;2024-01-30T01:41:34;12.70;99.90
23520;DHT22;11936;50.820;4.336;2024-01-30T01:43:59;12.70;99.90
23520;DHT22;11936;50.820;4.336;2024-01-30T01:46:32;12.70;99.90
23520;DHT22;11936;50.820;4.336;2024-01-30T01:48:58;12.60;99.90
23520;DHT22;11936;50.820;4.336;2024-01-30T01:51:28;12.60;99.90
23520;DHT22;11936;50.820;4.336;2024-01-30T01:53:56;12.60;99.90
23520;DHT22;11936;50.820;4.336;2024-01-30T01:56:23;12.50;99.90
23520;DHT22;11936;50.820;4.336;2024-01-30T01:58:49;12.60;99.90
23520;DHT22;11936;50.820;4.336;2024-01-30T02:01:19;12.60;99.90
23520;DHT22;11936;50.820;4.336;2024-01-30T02:03:48;12.70;99.90
23520;DHT22;11936;50.820;4.336;2024-01-30T02:06:14;12.70;99.90
23520;DHT22;11936;50.820;4.336;2024-01-30T02:08:40;12.70;99.90
23520;DHT22;11936;50.820;4.336;2024-01-30T02:11:06;12.70;99.90
23520;DHT22;11936;50.820;4.336;2024-01-30T02:13:31;12.80;99.90
23520;DHT22;11936;50.820;4.336;2024-01-30T02:15:57;12.80;99.90
23520;DHT22;11936;50.820;4.336;2024-01-30T02:18:23;12.80;99.90
23520;DHT22;11936;50.820;4.336;2024-01-30T02:20:48;12.70;99.90
23520;DHT22;11936;50.820;4.336;2024-01-30T02:23:15;12.70;99.90
23520;DHT22;11936;50.820;4.336;2024-01-30T02:25:42;12.80;99.90
23520;DHT22;11936;50.820;4.336;2024-01-30T02:28:11;12.70;99.90
23520;DHT22;11936;50.820;4.336;2024-01-30T02:30:38;12.70;99.90
23520;DHT22;11936;50.820;4.336;2024-01-30T02:33:04;12.70;99.90
23520;DHT22;11936;50.820;4.336;2024-01-30T02:35:30;12.80;99.90
23520;DHT22;11936;50.820;4.336;2024-01-30T02:37:55;12.80;99.90
23520;DHT22;11936;50.820;4.336;2024-01-30T02:40:21;12.80;99.90
23520;DHT22;11936;50.820;4.336;2024-01-30T02:42:46;12.80;99.90
23520;DHT22;11936;50.820;4.336;2024-01-30T02:45:12;12.80;99.90
23520;DHT22;11936;50.820;4.336;2024-01-30T02:47:39;12.60;99.90
23520;DHT22;11936;50.820;4.336;2024-01-30T02:50:05;12.60;99.90
23520;DHT22;11936;50.820;4.336;2024-01-30T02:52:31;12.70;99.90
23520;DHT22;11936;50.820;4.336;2024-01-30T02:54:56;12.70;99.90
23520;DHT22;11936;50.820;4.336;2024-01-30T02:57:22;12.80;99.90
23520;DHT22;11936;50.820;4.336;2024-01-30T02:59:47;12.80;99.90
23520;DHT22;11936;50.820;4.336;2024-01-30T03:02:13;12.80;99.90
23520;DHT22;11936;50.820;4.336;2024-01-30T03:04:41;12.80;99.90
23520;DHT22;11936;50.820;4.336;2024-01-30T03:07:06;12.70;99.90
23520;DHT22;11936;50.820;4.336;2024-01-30T03:09:32;12.70;99.90
23520;DHT22;11936;50.820;4.336;2024-01-30T03:11:58;12.70;99.90
23520;DHT22;11936;50.820;4.336;2024-01-30T03:14:23;12.80;99.90
23520;DHT22;11936;50.820;4.336;2024-01-30T03:16:49;12.70;99.90
23520;DHT22;11936;50.820;4.336;2024-01-30T03:19:15;12.80;99.90
23520;DHT22;11936;50.820;4.336;2024-01-30T03:21:40;12.90;99.90
23520;DHT22;11936;50.820;4.336;2024-01-30T03:24:06;13.00;99.90
23520;DHT22;11936;50.820;4.336;2024-01-30T03:26:32;13.00;99.90
23520;DHT22;11936;50.820;4.336;2024-01-30T03:28:57;12.90;99.90
23520;DHT22;11936;50.820;4.336;2024-01-30T03:31:23;12.80;99.90
23520;DHT22;11936;50.820;4.336;2024-01-30T03:33:49;12.90;99.90
23520;DHT22;11936;50.820;4.336;2024-01-30T03:36:15;12.90;99.90
23520;DHT22;11936;50.820;4.336;2024-01-30T03:38:41;12.90;99.90
23520;DHT22;11936;50.820;4.336;2024-01-30T03:41:10;12.80;99.90
23520;DHT22;11936;50.820;4.336;2024-01-30T03:43:36;12.90;99.90
23520;DHT22;11936;50.820;4.336;2024-01-30T03:46:02;12.90;99.90
23520;DHT22;11936;50.820;4.336;2024-01-30T03:48:28;13.00;99.90
23520;DHT22;11936;50.820;4.336;2024-01-30T03:50:53;13.00;99.90
23520;DHT22;11936;50.820;4.336;2024-01-30T03:53:19;12.90;99.90
23520;DHT22;11936;50.820;4.336;2024-01-30T03:55:45;12.90;99.90
23520;DHT22;11936;50.820;4.336;2024-01-30T03:58:10;12.90;99.90
23520;DHT22;11936;50.820;4.336;2024-01-30T04:00:36;12.90;99.90
23520;DHT22;11936;50.820;4.336;2024-01-30T04:03:01;12.90;99.90
23520;DHT22;11936;50.820;4.336;2024-01-30T04:05:27;12.60;99.90
23520;DHT22;11936;50.820;4.336;2024-01-30T04:07:53;12.60;99.90
23520;DHT22;11936;50.820;4.336;2024-01-30T04:10:18;12.60;99.90
23520;DHT22;11936;50.820;4.336;2024-01-30T04:12:44;12.60;99.90
23520;DHT22;11936;50.820;4.336;2024-01-30T04:15:09;12.50;99.90
23520;DHT22;11936;50.820;4.336;2024-01-30T04:17:35;12.50;99.90
23520;DHT22;11936;50.820;4.336;2024-01-30T04:20:00;12.50;99.90
23520;DHT22;11936;50.820;4.336;2024-01-30T04:22:26;12.60;99.90
23520;DHT22;11936;50.820;4.336;2024-01-30T04:24:52;12.60;99.90
23520;DHT22;11936;50.820;4.336;2024-01-30T04:27:17;12.60;99.90
23520;DHT22;11936;50.820;4.336;2024-01-30T04:29:43;12.60;99.90
23520;DHT22;11936;50.820;4.336;2024-01-30T04:32:09;12.70;99.90
23520;DHT22;11936;50.820;4.336;2024-01-30T04:34:36;12.70;99.90
23520;DHT22;11936;50.820;4.336;2024-01-30T04:37:02;12.60;99.90
23520;DHT22;11936;50.820;4.336;2024-01-30T04:39:28;12.50;99.90
23520;DHT22;11936;50.820;4.336;2024-01-30T04:41:54;12.50;99.90
23520;DHT22;11936;50.820;4.336;2024-01-30T04:44:19;12.60;99.90
23520;DHT22;11936;50.820;4.336;2024-01-30T04:46:45;12.70;99.90
23520;DHT22;11936;50.820;4.336;2024-01-30T04:49:10;12.60;99.90
23520;DHT22;11936;50.820;4.336;2024-01-30T04:51:36;12.80;99.90
23520;DHT22;11936;50.820;4.336;2024-01-30T04:54:02;12.70;99.90
23520;DHT22;11936;50.820;4.336;2024-01-30T04:56:27;12.70;99.90
23520;DHT22;11936;50.820;4.336;2024-01-30T04:58:53;12.70;99.90
23520;DHT22;11936;50.820;4.336;2024-01-30T05:01:19;12.70;99.90
23520;DHT22;11936;50.820;4.336;2024-01-30T05:03:44;13.00;99.90
23520;DHT22;11936;50.820;4.336;2024-01-30T05:06:10;13.20;99.90
23520;DHT22;11936;50.820;4.336;2024-01-30T05:08:35;13.40;99.90
23520;DHT22;11936;50.820;4.336;2024-01-30T05:11:07;13.20;99.90
23520;DHT22;11936;50.820;4.336;2024-01-30T05:13:33;12.90;99.90
23520;DHT22;11936;50.820;4.336;2024-01-30T05:15:58;12.90;99.90
23520;DHT22;11936;50.820;4.336;2024-01-30T05:18:24;12.80;99.90
23520;DHT22;11936;50.820;4.336;2024-01-30T05:20:50;12.80;99.90
23520;DHT22;11936;50.820;4.336;2024-01-30T05:23:16;12.60;99.90
23520;DHT22;11936;50.820;4.336;2024-01-30T05:25:41;12.60;99.90
23520;DHT22;11936;50.820;4.336;2024-01-30T05:28:07;12.60;99.90
23520;DHT22;11936;50.820;4.336;2024-01-30T05:30:33;12.70;99.90
23520;DHT22;11936;50.820;4.336;2024-01-30T05:32:58;12.60;99.90
23520;DHT22;11936;50.820;4.336;2024-01-30T05:35:24;12.70;99.90
23520;DHT22;11936;50.820;4.336;2024-01-30T05:37:49;12.70;99.90
23520;DHT22;11936;50.820;4.336;2024-01-30T05:40:15;12.70;99.90
23520;DHT22;11936;50.820;4.336;2024-01-30T05:42:41;12.60;99.90
23520;DHT22;11936;50.820;4.336;2024-01-30T05:45:07;12.60;99.90
23520;DHT22;11936;50.820;4.336;2024-01-30T05:47:34;12.70;99.90
23520;DHT22;11936;50.820;4.336;2024-01-30T05:49:59;12.70;99.90
23520;DHT22;11936;50.820;4.336;2024-01-30T05:52:25;12.60;99.90
23520;DHT22;11936;50.820;4.336;2024-01-30T05:54:50;12.60;99.90
23520;DHT22;11936;50.820;4.336;2024-01-30T05:57:16;12.80;99.90
23520;DHT22;11936;50.820;4.336;2024-01-30T05:59:44;12.80;99.90
23520;DHT22;11936;50.820;4.336;2024-01-30T06:02:13;12.90;99.90
23520;DHT22;11936;50.820;4.336;2024-01-30T06:04:39;12.90;99.90
23520;DHT22;11936;50.820;4.336;2024-01-30T06:07:04;12.90;99.90
23520;DHT22;11936;50.820;4.336;2024-01-30T06:09:31;12.90;99.90
23520;DHT22;11936;50.820;4.336;2024-01-30T06:11:57;12.80;99.90
23520;DHT22;11936;50.820;4.336;2024-01-30T06:14:23;12.70;99.90
23520;DHT22;11936;50.820;4.336;2024-01-30T06:16:49;12.70;99.90
23520;DHT22;11936;50.820;4.336;2024-01-30T06:19:15;12.70;99.90
23520;DHT22;11936;50.820;4.336;2024-01-30T06:21:40;12.70;99.90
23520;DHT22;11936;50.820;4.336;2024-01-30T06:24:06;12.40;99.90
23520;DHT22;11936;50.820;4.336;2024-01-30T06:26:32;12.40;99.90
23520;DHT22;11936;50.820;4.336;2024-01-30T06:28:57;12.40;99.90
23520;DHT22;11936;50.820;4.336;2024-01-30T06:31:23;12.50;99.90
23520;DHT22;11936;50.820;4.336;2024-01-30T06:33:49;12.40;99.90
23520;DHT22;11936;50.820;4.336;2024-01-30T06:36:15;12.50;99.90
23520;DHT22;11936;50.820;4.336;2024-01-30T06:38:41;12.50;99.90
23520;DHT22;11936;50.820;4.336;2024-01-30T06:41:06;12.40;99.90
23520;DHT22;11936;50.820;4.336;2024-01-30T06:43:32;12.30;99.90
23520;DHT22;11936;50.820;4.336;2024-01-30T06:45:58;12.30;99.90
23520;DHT22;11936;50.820;4.336;2024-01-30T06:48:23;12.30;99.90
23520;DHT22;11936;50.820;4.336;2024-01-30T06:50:49;12.30;99.90
23520;DHT22;11936;50.820;4.336;2024-01-30T06:53:16;12.20;99.90
23520;DHT22;11936;50.820;4.336;2024-01-30T06:55:41;12.30;99.90
23520;DHT22;11936;50.820;4.336;2024-01-30T06:58:07;12.40;99.90
23520;DHT22;11936;50.820;4.336;2024-01-30T07:00:32;12.40;99.90
23520;DHT22;11936;50.820;4.336;2024-01-30T07:02:58;12.50;99.90
23520;DHT22;11936;50.820;4.336;2024-01-30T07:05:23;12.50;99.90
23520;DHT22;11936;50.820;4.336;2024-01-30T07:07:49;12.40;99.90
23520;DHT22;11936;50.820;4.336;2024-01-30T07:10:14;12.40;99.90
23520;DHT22;11936;50.820;4.336;2024-01-30T07:12:40;12.40;99.90
23520;DHT22;11936;50.820;4.336;2024-01-30T07:15:06;12.30;99.90
23520;DHT22;11936;50.820;4.336;2024-01-30T07:17:34;12.20;99.90
23520;DHT22;11936;50.820;4.336;2024-01-30T07:20:00;12.10;99.90
23520;DHT22;11936;50.820;4.336;2024-01-30T07:22:28;12.10;99.90
23520;DHT22;11936;50.820;4.336;2024-01-30T07:24:53;12.20;99.90
23520;DHT22;11936;50.820;4.336;2024-01-30T07:27:19;12.30;99.90
23520;DHT22;11936;50.820;4.336;2024-01-30T07:29:44;12.40;99.90
23520;DHT22;11936;50.820;4.336;2024-01-30T07:32:10;12.20;99.90
23520;DHT22;11936;50.820;4.336;2024-01-30T07:34:35;12.30;99.90
23520;DHT22;11936;50.820;4.336;2024-01-30T07:37:01;12.30;99.90
23520;DHT22;11936;50.820;4.336;2024-01-30T07:39:28;12.30;99.90
23520;DHT22;11936;50.820;4.336;2024-01-30T07:41:53;12.30;99.90
23520;DHT22;11936;50.820;4.336;2024-01-30T07:44:20;12.30;99.90
23520;DHT22;11936;50.820;4.336;2024-01-30T07:46:46;12.40;99.90
23520;DHT22;11936;50.820;4.336;2024-01-30T07:49:11;12.40;99.90
23520;DHT22;11936;50.820;4.336;2024-01-30T07:51:39;12.30;99.90
23520;DHT22;11936;50.820;4.336;2024-01-30T07:54:11;12.40;99.90
23520;DHT22;11936;50.820;4.336;2024-01-30T07:56:37;12.50;99.90
23520;DHT22;11936;50.820;4.336;2024-01-30T07:59:02;12.50;99.90
23520;DHT22;11936;50.820;4.336;2024-01-30T08:01:28;12.40;99.90
23520;DHT22;11936;50.820;4.336;2024-01-30T08:03:53;12.50;99.90
23520;DHT22;11936;50.820;4.336;2024-01-30T08:06:19;12.70;99.90
23520;DHT22;11936;50.820;4.336;2024-01-30T08:08:45;12.60;99.90
23520;DHT22;11936;50.820;4.336;2024-01-30T08:11:10;12.50;99.90
23520;DHT22;11936;50.820;4.336;2024-01-30T08:13:36;12.50;99.90
23520;DHT22;11936;50.820;4.336;2024-01-30T08:16:02;12.50;99.90
23520;DHT22;11936;50.820;4.336;2024-01-30T08:18:27;12.50;99.90
23520;DHT22;11936;50.820;4.336;2024-01-30T08:20:53;12.30;99.90
23520;DHT22;11936;50.820;4.336;2024-01-30T08:23:18;12.30;99.90
23520;DHT22;11936;50.820;4.336;2024-01-30T08:25:44;12.30;99.90
23520;DHT22;11936;50.820;4.336;2024-01-30T08:28:10;12.40;99.90
23520;DHT22;11936;50.820;4.336;2024-01-30T08:30:35;12.40;99.90
23520;DHT22;11936;50.820;4.336;2024-01-30T08:33:01;12.40;99.90
23520;DHT22;11936;50.820;4.336;2024-01-30T08:35:27;12.50;99.90
23520;DHT22;11936;50.820;4.336;2024-01-30T08:37:52;12.40;99.90
23520;DHT22;11936;50.820;4.336;2024-01-30T08:40:19;12.40;99.90
23520;DHT22;11936;50.820;4.336;2024-01-30T08:42:45;12.50;99.90
23520;DHT22;11936;50.820;4.336;2024-01-30T08:45:11;12.60;99.90
23520;DHT22;11936;50.820;4.336;2024-01-30T08:47:37;12.50;99.90
23520;DHT22;11936;50.820;4.336;2024-01-30T08:50:02;12.60;99.90
23520;DHT22;11936;50.820;4.336;2024-01-30T08:52:29;12.60;99.90
23520;DHT22;11936;50.820;4.336;2024-01-30T08:54:54;12.70;99.90
23520;DHT22;11936;50.820;4.336;2024-01-30T08:57:20;12.70;99.90
23520;DHT22;11936;50.820;4.336;2024-01-30T08:59:46;12.60;99.90
23520;DHT22;11936;50.820;4.336;2024-01-30T09:02:13;12.60;99.90
23520;DHT22;11936;50.820;4.336;2024-01-30T09:04:41;12.70;99.90
23520;DHT22;11936;50.820;4.336;2024-01-30T09:07:08;12.60;99.90
23520;DHT22;11936;50.820;4.336;2024-01-30T09:09:34;12.50;99.90
23520;DHT22;11936;50.820;4.336;2024-01-30T09:12:00;12.50;99.90
23520;DHT22;11936;50.820;4.336;2024-01-30T09:14:30;12.40;99.90
23520;DHT22;11936;50.820;4.336;2024-01-30T09:16:56;12.40;99.90
23520;DHT22;11936;50.820;4.336;2024-01-30T09:19:21;12.40;99.90
23520;DHT22;11936;50.820;4.336;2024-01-30T09:21:47;12.50;99.90
23520;DHT22;11936;50.820;4.336;2024-01-30T09:24:13;12.70;99.90
23520;DHT22;11936;50.820;4.336;2024-01-30T09:26:38;12.70;99.90
23520;DHT22;11936;50.820;4.336;2024-01-30T09:29:04;12.70;99.90
23520;DHT22;11936;50.820;4.336;2024-01-30T09:31:29;12.70;99.90
23520;DHT22;11936;50.820;4.336;2024-01-30T09:33:55;12.80;99.90
23520;DHT22;11936;50.820;4.336;2024-01-30T09:36:21;12.60;99.90
23520;DHT22;11936;50.820;4.336;2024-01-30T09:38:47;12.50;99.90
23520;DHT22;11936;50.820;4.336;2024-01-30T09:41:13;12.30;99.90
23520;DHT22;11936;50.820;4.336;2024-01-30T09:43:39;12.30;99.90
23520;DHT22;11936;50.820;4.336;2024-01-30T09:46:06;12.30;99.90
23520;DHT22;11936;50.820;4.336;2024-01-30T09:48:33;12.40;99.90
23520;DHT22;11936;50.820;4.336;2024-01-30T09:50:59;12.40;99.90
23520;DHT22;11936;50.820;4.336;2024-01-30T09:53:25;12.40;99.90
23520;DHT22;11936;50.820;4.336;2024-01-30T09:55:51;12.30;99.90
23520;DHT22;11936;50.820;4.336;2024-01-30T09:58:17;12.20;99.90
23520;DHT22;11936;50.820;4.336;2024-01-30T10:00:43;12.30;99.90
23520;DHT22;11936;50.820;4.336;2024-01-30T10:03:09;12.20;99.90
23520;DHT22;11936;50.820;4.336;2024-01-30T10:05:35;12.20;99.90
23520;DHT22;11936;50.820;4.336;2024-01-30T10:08:06;12.20;99.90
23520;DHT22;11936;50.820;4.336;2024-01-30T10:10:34;12.10;99.90
23520;DHT22;11936;50.820;4.336;2024-01-30T10:13:00;12.20;99.90
23520;DHT22;11936;50.820;4.336;2024-01-30T10:15:28;12.10;99.90
23520;DHT22;11936;50.820;4.336;2024-01-30T10:17:54;12.20;99.90
23520;DHT22;11936;50.820;4.336;2024-01-30T10:20:19;12.10;99.90
23520;DHT22;11936;50.820;4.336;2024-01-30T10:22:48;12.10;99.90
23520;DHT22;11936;50.820;4.336;2024-01-30T10:25:15;12.10;99.90
23520;DHT22;11936;50.820;4.336;2024-01-30T10:27:40;12.20;99.90
23520;DHT22;11936;50.820;4.336;2024-01-30T10:30:07;12.40;99.90
23520;DHT22;11936;50.820;4.336;2024-01-30T10:32:33;12.40;99.90
23520;DHT22;11936;50.820;4.336;2024-01-30T10:34:59;12.40;99.90
23520;DHT22;11936;50.820;4.336;2024-01-30T10:37:30;12.50;99.90
23520;DHT22;11936;50.820;4.336;2024-01-30T10:40:00;12.30;99.90
23520;DHT22;11936;50.820;4.336;2024-01-30T10:42:31;12.40;99.90
23520;DHT22;11936;50.820;4.336;2024-01-30T10:45:06;12.40;99.90
23520;DHT22;11936;50.820;4.336;2024-01-30T10:47:35;12.40;99.90
23520;DHT22;11936;50.820;4.336;2024-01-30T10:50:04;12.50;99.90
23520;DHT22;11936;50.820;4.336;2024-01-30T10:52:31;12.60;99.90
23520;DHT22;11936;50.820;4.336;2024-01-30T10:54:58;12.60;99.90
23520;DHT22;11936;50.820;4.336;2024-01-30T10:57:27;12.60;99.90
23520;DHT22;11936;50.820;4.336;2024-01-30T10:59:56;12.60;99.90
23520;DHT22;11936;50.820;4.336;2024-01-30T11:02:23;12.40;99.90
23520;DHT22;11936;50.820;4.336;2024-01-30T11:04:58;12.50;99.90
23520;DHT22;11936;50.820;4.336;2024-01-30T11:07:25;12.40;99.90
23520;DHT22;11936;50.820;4.336;2024-01-30T11:12:25;12.50;99.90
23520;DHT22;11936;50.820;4.336;2024-01-30T11:15:11;12.40;99.90
23520;DHT22;11936;50.820;4.336;2024-01-30T11:17:43;12.40;99.90
23520;DHT22;11936;50.820;4.336;2024-01-30T11:20:10;12.30;99.90
23520;DHT22;11936;50.820;4.336;2024-01-30T11:22:37;12.20;99.90
23520;DHT22;11936;50.820;4.336;2024-01-30T11:25:03;12.30;99.90
23520;DHT22;11936;50.820;4.336;2024-01-30T11:27:30;12.10;99.90
23520;DHT22;11936;50.820;4.336;2024-01-30T11:30:02;12.20;99.90
23520;DHT22;11936;50.820;4.336;2024-01-30T11:32:28;12.10;99.90
23520;DHT22;11936;50.820;4.336;2024-01-30T11:34:54;12.00;99.90
23520;DHT22;11936;50.820;4.336;2024-01-30T11:37:21;12.00;99.90
23520;DHT22;11936;50.820;4.336;2024-01-30T11:39:51;12.00;99.90
23520;DHT22;11936;50.820;4.336;2024-01-30T11:42:17;12.10;99.90
23520;DHT22;11936;50.820;4.336;2024-01-30T11:44:47;12.10;99.90
23520;DHT22;11936;50.820;4.336;2024-01-30T11:47:13;12.10;99.90
23520;DHT22;11936;50.820;4.336;2024-01-30T11:49:39;12.30;99.90
23520;DHT22;11936;50.820;4.336;2024-01-30T11:52:05;12.30;99.90
23520;DHT22;11936;50.820;4.336;2024-01-30T11:54:31;12.20;99.90
23520;DHT22;11936;50.820;4.336;2024-01-30T11:56:57;12.30;99.90
23520;DHT22;11936;50.820;4.336;2024-01-30T11:59:22;12.30;99.90
23520;DHT22;11936;50.820;4.336;2024-01-30T12:01:48;12.30;99.90
23520;DHT22;11936;50.820;4.336;2024-01-30T12:04:15;12.40;99.90
23520;DHT22;11936;50.820;4.336;2024-01-30T12:06:40;12.50;99.90
23520;DHT22;11936;50.820;4.336;2024-01-30T12:09:06;12.40;99.90
23520;DHT22;11936;50.820;4.336;2024-01-30T12:11:45;12.50;99.90
23520;DHT22;11936;50.820;4.336;2024-01-30T12:14:12;12.50;99.90
23520;DHT22;11936;50.820;4.336;2024-01-30T12:16:37;12.20;99.90
23520;DHT22;11936;50.820;4.336;2024-01-30T12:19:03;12.10;99.90
23520;DHT22;11936;50.820;4.336;2024-01-30T12:21:29;12.00;99.90
23520;DHT22;11936;50.820;4.336;2024-01-30T12:23:56;11.90;99.90
23520;DHT22;11936;50.820;4.336;2024-01-30T12:26:24;12.00;99.90
23520;DHT22;11936;50.820;4.336;2024-01-30T12:28:50;12.00;99.90
23520;DHT22;11936;50.820;4.336;2024-01-30T12:31:24;12.10;99.90
23520;DHT22;11936;50.820;4.336;2024-01-30T12:33:50;12.20;99.90
23520;DHT22;11936;50.820;4.336;2024-01-30T12:36:16;12.30;99.90
23520;DHT22;11936;50.820;4.336;2024-01-30T12:38:42;12.20;99.90
23520;DHT22;11936;50.820;4.336;2024-01-30T12:41:08;12.10;99.90
23520;DHT22;11936;50.820;4.336;2024-01-30T12:43:34;12.10;99.90
23520;DHT22;11936;50.820;4.336;2024-01-30T12:46:00;12.20;99.90
23520;DHT22;11936;50.820;4.336;2024-01-30T12:48:26;12.10;99.90
23520;DHT22;11936;50.820;4.336;2024-01-30T12:50:54;12.00;99.90
23520;DHT22;11936;50.820;4.336;2024-01-30T12:53:20;12.00;99.90
23520;DHT22;11936;50.820;4.336;2024-01-30T12:55:45;11.90;99.90
23520;DHT22;11936;50.820;4.336;2024-01-30T12:58:11;12.10;99.90
23520;DHT22;11936;50.820;4.336;2024-01-30T13:00:36;12.30;99.90
23520;DHT22;11936;50.820;4.336;2024-01-30T13:03:02;12.40;99.90
23520;DHT22;11936;50.820;4.336;2024-01-30T13:05:28;12.10;99.90
23520;DHT22;11936;50.820;4.336;2024-01-30T13:07:53;12.20;99.90
23520;DHT22;11936;50.820;4.336;2024-01-30T13:10:19;12.30;99.90
23520;DHT22;11936;50.820;4.336;2024-01-30T13:12:45;12.50;99.90
23520;DHT22;11936;50.820;4.336;2024-01-30T13:15:10;12.60;99.90
23520;DHT22;11936;50.820;4.336;2024-01-30T13:17:36;12.60;99.90
23520;DHT22;11936;50.820;4.336;2024-01-30T13:20:02;12.70;99.90
23520;DHT22;11936;50.820;4.336;2024-01-30T13:22:29;12.60;99.90
23520;DHT22;11936;50.820;4.336;2024-01-30T13:24:55;12.50;99.90
23520;DHT22;11936;50.820;4.336;2024-01-30T13:27:21;12.50;99.90
23520;DHT22;11936;50.820;4.336;2024-01-30T13:29:46;12.40;99.90
23520;DHT22;11936;50.820;4.336;2024-01-30T13:32:12;12.40;99.90
23520;DHT22;11936;50.820;4.336;2024-01-30T13:34:37;12.30;99.90
23520;DHT22;11936;50.820;4.336;2024-01-30T13:37:03;12.20;99.90
23520;DHT22;11936;50.820;4.336;2024-01-30T13:39:29;12.30;99.90
23520;DHT22;11936;50.820;4.336;2024-01-30T13:41:54;12.10;99.90
23520;DHT22;11936;50.820;4.336;2024-01-30T13:44:20;12.10;99.90
23520;DHT22;11936;50.820;4.336;2024-01-30T13:46:46;12.20;99.90
23520;DHT22;11936;50.820;4.336;2024-01-30T13:49:12;12.10;99.90
23520;DHT22;11936;50.820;4.336;2024-01-30T13:51:37;12.00;99.90
23520;DHT22;11936;50.820;4.336;2024-01-30T13:54:03;12.00;99.90
23520;DHT22;11936;50.820;4.336;2024-01-30T13:56:29;12.10;99.90
23520;DHT22;11936;50.820;4.336;2024-01-30T13:58:55;12.10;99.90
23520;DHT22;11936;50.820;4.336;2024-01-30T14:01:22;12.10;99.90
23520;DHT22;11936;50.820;4.336;2024-01-30T14:03:47;12.00;99.90
23520;DHT22;11936;50.820;4.336;2024-01-30T14:06:13;11.90;99.90
23520;DHT22;11936;50.820;4.336;2024-01-30T14:08:39;12.00;99.90
23520;DHT22;11936;50.820;4.336;2024-01-30T14:11:05;12.00;99.90
23520;DHT22;11936;50.820;4.336;2024-01-30T14:13:31;12.00;99.90
23520;DHT22;11936;50.820;4.336;2024-01-30T14:15:58;11.90;99.90
23520;DHT22;11936;50.820;4.336;2024-01-30T14:18:23;12.00;99.90
23520;DHT22;11936;50.820;4.336;2024-01-30T14:20:51;12.20;99.90
23520;DHT22;11936;50.820;4.336;2024-01-30T14:23:17;12.20;99.90
23520;DHT22;11936;50.820;4.336;2024-01-30T14:25:43;12.20;99.90
23520;DHT22;11936;50.820;4.336;2024-01-30T14:28:09;12.10;99.90
23520;DHT22;11936;50.820;4.336;2024-01-30T14:30:35;12.00;99.90
23520;DHT22;11936;50.820;4.336;2024-01-30T14:33:01;11.90;99.90
23520;DHT22;11936;50.820;4.336;2024-01-30T14:35:27;11.90;99.90
23520;DHT22;11936;50.820;4.336;2024-01-30T14:37:53;12.00;99.90
23520;DHT22;11936;50.820;4.336;2024-01-30T14:40:19;11.80;99.90
23520;DHT22;11936;50.820;4.336;2024-01-30T14:42:45;11.90;99.90
23520;DHT22;11936;50.820;4.336;2024-01-30T14:45:11;11.80;99.90
23520;DHT22;11936;50.820;4.336;2024-01-30T14:47:37;11.90;99.90
23520;DHT22;11936;50.820;4.336;2024-01-30T14:50:03;11.90;99.90
23520;DHT22;11936;50.820;4.336;2024-01-30T14:52:29;12.10;99.90
23520;DHT22;11936;50.820;4.336;2024-01-30T14:54:55;12.10;99.90
23520;DHT22;11936;50.820;4.336;2024-01-30T14:57:21;11.90;99.90
23520;DHT22;11936;50.820;4.336;2024-01-30T14:59:46;11.90;99.90
23520;DHT22;11936;50.820;4.336;2024-01-30T15:02:13;12.00;99.90
23520;DHT22;11936;50.820;4.336;2024-01-30T15:04:40;11.80;99.90
23520;DHT22;11936;50.820;4.336;2024-01-30T15:07:05;11.80;99.90
23520;DHT22;11936;50.820;4.336;2024-01-30T15:09:31;11.60;99.90
23520;DHT22;11936;50.820;4.336;2024-01-30T15:11:57;11.50;99.90
23520;DHT22;11936;50.820;4.336;2024-01-30T15:14:23;11.60;99.90
23520;DHT22;11936;50.820;4.336;2024-01-30T15:16:49;11.50;99.90
23520;DHT22;11936;50.820;4.336;2024-01-30T15:19:15;11.60;99.90
23520;DHT22;11936;50.820;4.336;2024-01-30T15:21:41;11.50;99.90
23520;DHT22;11936;50.820;4.336;2024-01-30T15:24:06;11.50;99.90
23520;DHT22;11936;50.820;4.336;2024-01-30T15:26:32;11.50;99.90